Time;durP1;ratioP1;P1;durP2;ratioP2;P2;SDS_P1;SDS_P2;PMS_P1;PMS_P2;Temp;Humidity;BMP_temperature;BMP_pressure;BME280_temperature;BME280_humidity;BME280_pressure;Samples;Min_cycle;Max_cycle;Signal;HPM_P1;HPM_P2
2022/03/12 00:01:21;;;;;;;4.05;2.50;;;;;;;;;;5075192;28;20229;-73
2022/03/12 00:03:47;;;;;;;4.35;1.58;;;;;;;;;;5077452;28;20044;-73
2022/03/12 00:06:15;;;;;;;3.50;2.00;;;;;;;;;;5086484;27;20077;-73
2022/03/12 00:08:44;;;;;;;4.40;2.53;;;;;;;;;;5071591;28;20051;-74
2022/03/12 00:11:11;;;;;;;4.88;2.42;;;;;;;;;;5075442;28;20048;-73
2022/03/12 00:13:38;;;;;;;4.43;2.67;;;;;;;;;;5062013;28;20083;-73
2022/03/12 00:16:04;;;;;;;7.18;1.83;;;;;;;;;;5070847;28;20089;-73
2022/03/12 00:18:30;;;;;;;3.85;1.83;;;;;;;;;;5084416;27;20122;-74
2022/03/12 00:21:01;;;;;;;4.13;1.83;;;;;;;;;;5091345;27;20062;-74
2022/03/12 00:23:28;;;;;;;3.28;1.60;;;;;;;;;;5074233;28;20104;-74
2022/03/12 00:25:54;;;;;;;4.30;1.90;;;;;;;;;;5073553;28;20063;-73
2022/03/12 00:28:20;;;;;;;3.92;1.85;;;;;;;;;;5072922;28;20052;-73
2022/03/12 00:30:50;;;;;;;2.55;1.42;;;;;;;;;;5094879;27;20193;-73
2022/03/12 00:33:18;;;;;;;3.30;1.98;;;;;;;;;;5090531;27;20044;-73
2022/03/12 00:35:46;;;;;;;5.03;2.03;;;;;;;;;;5087280;27;20044;-74
2022/03/12 00:38:12;;;;;;;5.45;2.28;;;;;;;;;;5089919;27;20131;-73
2022/03/12 00:40:38;;;;;;;3.13;1.60;;;;;;;;;;5069260;28;20068;-73
2022/03/12 00:43:04;;;;;;;4.85;2.03;;;;;;;;;;5095528;27;20075;-73
2022/03/12 00:45:30;;;;;;;4.60;2.55;;;;;;;;;;5068979;28;20044;-73
2022/03/12 00:47:56;;;;;;;6.18;2.38;;;;;;;;;;5088314;27;20454;-73
2022/03/12 00:50:22;;;;;;;3.25;1.90;;;;;;;;;;5076516;28;20043;-73
2022/03/12 00:52:48;;;;;;;3.70;1.83;;;;;;;;;;5074869;28;20573;-74
2022/03/12 00:55:14;;;;;;;5.03;2.20;;;;;;;;;;5071616;27;20047;-74
2022/03/12 00:57:41;;;;;;;3.33;2.03;;;;;;;;;;5091658;27;20036;-73
2022/03/12 01:00:12;;;;;;;5.53;2.10;;;;;;;;;;5080049;27;20047;-73
2022/03/12 01:02:38;;;;;;;4.22;1.58;;;;;;;;;;5072362;27;20074;-73
2022/03/12 01:05:04;;;;;;;5.68;2.38;;;;;;;;;;5070008;27;20049;-73
2022/03/12 01:07:31;;;;;;;3.97;1.65;;;;;;;;;;5077768;27;20119;-73
2022/03/12 01:09:57;;;;;;;3.30;2.38;;;;;;;;;;5073740;27;20059;-73
2022/03/12 01:12:23;;;;;;;3.67;1.90;;;;;;;;;;5073976;27;20525;-74
2022/03/12 01:14:49;;;;;;;5.20;1.83;;;;;;;;;;5074573;27;20803;-74
2022/03/12 01:17:15;;;;;;;5.95;1.55;;;;;;;;;;5078726;27;20119;-74
2022/03/12 01:19:41;;;;;;;7.47;2.50;;;;;;;;;;5071267;27;20052;-74
2022/03/12 01:22:09;;;;;;;3.00;1.85;;;;;;;;;;5095202;27;20047;-73
2022/03/12 01:24:35;;;;;;;3.72;2.00;;;;;;;;;;5091206;27;20043;-73
2022/03/12 01:27:02;;;;;;;6.65;1.70;;;;;;;;;;5071988;27;21124;-73
2022/03/12 01:29:28;;;;;;;3.35;2.20;;;;;;;;;;5069355;27;20063;-74
2022/03/12 01:31:54;;;;;;;4.38;1.55;;;;;;;;;;5073929;27;20123;-73
2022/03/12 01:34:20;;;;;;;5.15;2.45;;;;;;;;;;5071512;27;20042;-73
2022/03/12 01:36:46;;;;;;;4.15;2.00;;;;;;;;;;5078943;27;20040;-74
2022/03/12 01:39:12;;;;;;;4.78;2.50;;;;;;;;;;5078666;27;20036;-74
2022/03/12 01:41:42;;;;;;;4.13;2.28;;;;;;;;;;5089601;27;20040;-73
2022/03/12 01:44:08;;;;;;;4.63;2.05;;;;;;;;;;5065418;27;20415;-74
2022/03/12 01:46:40;;;;;;;2.75;1.80;;;;;;;;;;5089058;27;20060;-74
2022/03/12 01:49:09;;;;;;;5.25;3.38;;;;;;;;;;5089111;27;20695;-74
2022/03/12 01:51:35;;;;;;;6.03;2.17;;;;;;;;;;5088721;27;20041;-74
2022/03/12 01:54:03;;;;;;;4.60;1.80;;;;;;;;;;5090768;27;20071;-73
2022/03/12 01:56:29;;;;;;;5.40;2.53;;;;;;;;;;5076551;27;20498;-73
2022/03/12 01:58:58;;;;;;;3.58;1.95;;;;;;;;;;5076944;27;20032;-73
2022/03/12 02:01:28;;;;;;;7.30;2.53;;;;;;;;;;5059402;27;20048;-73
2022/03/12 02:03:59;;;;;;;4.28;2.05;;;;;;;;;;5086408;27;20036;-73
2022/03/12 02:06:26;;;;;;;6.45;2.08;;;;;;;;;;5069462;27;20059;-74
2022/03/12 02:08:58;;;;;;;7.90;2.58;;;;;;;;;;5076530;27;20032;-73
2022/03/12 02:11:27;;;;;;;3.20;1.90;;;;;;;;;;5072463;27;20055;-73
2022/03/12 02:14:03;;;;;;;6.07;3.33;;;;;;;;;;5089664;27;20581;-73
2022/03/12 02:16:32;;;;;;;6.95;2.78;;;;;;;;;;5070646;27;20074;-74
2022/03/12 02:18:58;;;;;;;5.55;2.22;;;;;;;;;;5072985;27;20585;-74
2022/03/12 02:21:31;;;;;;;3.90;1.95;;;;;;;;;;5074142;27;20039;-74
2022/03/12 02:23:57;;;;;;;3.70;2.00;;;;;;;;;;5072273;28;20040;-74
2022/03/12 02:26:23;;;;;;;3.53;1.85;;;;;;;;;;5073740;27;20128;-74
2022/03/12 02:28:52;;;;;;;6.57;2.05;;;;;;;;;;5087484;27;20043;-74
2022/03/12 02:31:19;;;;;;;2.70;1.92;;;;;;;;;;5067910;28;20055;-73
2022/03/12 02:33:46;;;;;;;7.03;2.22;;;;;;;;;;5076335;27;20333;-73
2022/03/12 02:36:26;;;;;;;2.53;1.63;;;;;;;;;;5075952;27;20039;-73
2022/03/12 02:38:54;;;;;;;4.47;2.30;;;;;;;;;;5067887;28;20063;-73
2022/03/12 02:41:21;;;;;;;6.57;2.03;;;;;;;;;;5090042;27;20089;-74
2022/03/12 02:43:48;;;;;;;8.55;2.83;;;;;;;;;;5087710;27;20070;-74
2022/03/12 02:46:14;;;;;;;4.20;1.67;;;;;;;;;;5071867;28;20894;-74
2022/03/12 02:48:42;;;;;;;4.75;2.47;;;;;;;;;;5080770;28;20071;-74
2022/03/12 02:51:08;;;;;;;6.18;3.00;;;;;;;;;;5071220;28;20508;-74
2022/03/12 02:53:34;;;;;;;4.93;1.67;;;;;;;;;;5090321;27;20548;-74
2022/03/12 02:56:03;;;;;;;6.63;1.98;;;;;;;;;;5072198;28;20036;-74
2022/03/12 02:58:29;;;;;;;5.10;1.67;;;;;;;;;;5074209;28;20044;-73
2022/03/12 03:00:57;;;;;;;2.72;1.52;;;;;;;;;;5072174;27;20044;-74
2022/03/12 03:03:26;;;;;;;5.78;2.15;;;;;;;;;;5070328;28;20044;-74
2022/03/12 03:05:55;;;;;;;6.32;2.00;;;;;;;;;;5070459;28;20044;-74
2022/03/12 03:08:22;;;;;;;3.10;1.90;;;;;;;;;;5067323;28;20063;-74
2022/03/12 03:10:55;;;;;;;5.85;2.42;;;;;;;;;;5072126;28;22152;-74
2022/03/12 03:13:21;;;;;;;5.10;1.92;;;;;;;;;;5070013;28;20630;-74
2022/03/12 03:15:52;;;;;;;5.72;1.77;;;;;;;;;;5076108;27;20043;-74
2022/03/12 03:18:22;;;;;;;4.00;1.60;;;;;;;;;;5076207;28;20149;-74
2022/03/12 03:20:54;;;;;;;3.92;2.20;;;;;;;;;;5071678;28;20044;-73
2022/03/12 03:23:22;;;;;;;2.25;1.60;;;;;;;;;;5071719;28;20560;-74
2022/03/12 03:25:48;;;;;;;3.00;2.05;;;;;;;;;;5072413;28;20580;-73
2022/03/12 03:28:20;;;;;;;5.65;1.98;;;;;;;;;;5071034;28;20050;-74
2022/03/12 03:30:55;;;;;;;8.00;2.67;;;;;;;;;;5071378;28;20173;-74
2022/03/12 03:33:47;;;;;;;4.05;1.70;;;;;;;;;;5065694;28;20317;-74
2022/03/12 03:36:13;;;;;;;7.25;2.30;;;;;;;;;;5069020;27;20036;-74
2022/03/12 03:38:39;;;;;;;3.72;1.83;;;;;;;;;;5070924;28;20056;-74
2022/03/12 03:41:06;;;;;;;7.28;1.95;;;;;;;;;;5072539;28;20048;-74
2022/03/12 03:43:38;;;;;;;4.85;2.60;;;;;;;;;;5071371;27;20601;-74
2022/03/12 03:46:06;;;;;;;6.97;2.38;;;;;;;;;;5070416;27;20063;-74
2022/03/12 03:48:43;;;;;;;4.75;2.30;;;;;;;;;;5087613;27;20496;-74
2022/03/12 03:51:11;;;;;;;3.03;1.67;;;;;;;;;;5071667;28;20605;-74
2022/03/12 03:53:40;;;;;;;11.43;2.63;;;;;;;;;;5089644;27;20044;-74
2022/03/12 03:56:06;;;;;;;4.35;2.28;;;;;;;;;;5075413;27;20040;-74
2022/03/12 03:58:37;;;;;;;4.38;2.13;;;;;;;;;;5075792;28;20071;-74
2022/03/12 04:01:11;;;;;;;3.70;1.88;;;;;;;;;;5074252;28;20048;-74
2022/03/12 04:03:47;;;;;;;5.53;2.72;;;;;;;;;;5063620;28;20121;-74
2022/03/12 04:06:26;;;;;;;;;;;;;;;;;;;;;
2022/03/12 04:08:55;;;;;;;7.15;2.05;;;;;;;;;;5073147;28;37423;-74
2022/03/12 04:11:28;;;;;;;5.47;2.45;;;;;;;;;;5071169;28;20047;-73
2022/03/12 04:13:54;;;;;;;4.95;2.53;;;;;;;;;;5074923;28;20068;-74
2022/03/12 04:16:31;;;;;;;6.75;2.05;;;;;;;;;;5068701;28;20047;-75
2022/03/12 04:19:06;;;;;;;2.53;1.50;;;;;;;;;;5065425;28;20053;-74
2022/03/12 04:21:32;;;;;;;5.45;2.30;;;;;;;;;;5070368;28;20045;-75
2022/03/12 04:24:01;;;;;;;3.63;1.65;;;;;;;;;;5070231;28;20051;-74
2022/03/12 04:26:35;;;;;;;4.80;1.80;;;;;;;;;;5074818;28;20507;-74
2022/03/12 04:29:08;;;;;;;8.70;2.22;;;;;;;;;;5073233;28;20295;-74
2022/03/12 04:31:34;;;;;;;5.50;2.10;;;;;;;;;;5070060;28;20479;-74
2022/03/12 04:34:00;;;;;;;6.15;2.22;;;;;;;;;;5072644;28;20048;-75
2022/03/12 04:36:27;;;;;;;5.32;2.03;;;;;;;;;;5068567;28;20126;-74
2022/03/12 04:38:57;;;;;;;3.42;1.80;;;;;;;;;;5070575;28;20085;-74
2022/03/12 04:41:31;;;;;;;5.70;2.53;;;;;;;;;;5067499;28;20095;-74
2022/03/12 04:43:57;;;;;;;5.03;3.20;;;;;;;;;;5068553;28;20558;-74
2022/03/12 04:46:24;;;;;;;4.55;2.53;;;;;;;;;;5074784;28;20045;-74
2022/03/12 04:48:52;;;;;;;2.42;1.75;;;;;;;;;;5070543;28;20132;-74
2022/03/12 04:51:18;;;;;;;4.93;2.13;;;;;;;;;;5073426;28;20076;-74
2022/03/12 04:53:45;;;;;;;8.38;2.40;;;;;;;;;;5067554;28;20656;-74
2022/03/12 04:56:11;;;;;;;7.55;2.25;;;;;;;;;;5066406;28;20111;-74
2022/03/12 04:58:38;;;;;;;4.93;2.33;;;;;;;;;;5070337;28;20044;-74
2022/03/12 05:01:06;;;;;;;5.30;2.33;;;;;;;;;;5070016;28;20047;-74
2022/03/12 05:03:35;;;;;;;2.80;1.95;;;;;;;;;;5070281;28;20611;-74
2022/03/12 05:06:03;;;;;;;3.45;1.95;;;;;;;;;;5068515;28;20107;-74
2022/03/12 05:08:36;;;;;;;7.82;2.92;;;;;;;;;;5072574;28;20981;-74
2022/03/12 05:11:02;;;;;;;2.97;1.67;;;;;;;;;;5070810;28;20041;-74
2022/03/12 05:13:28;;;;;;;4.22;1.88;;;;;;;;;;5074239;28;20032;-74
2022/03/12 05:15:55;;;;;;;5.00;2.15;;;;;;;;;;5071802;28;20106;-74
2022/03/12 05:18:23;;;;;;;6.93;2.33;;;;;;;;;;5071726;28;20148;-74
2022/03/12 05:20:53;;;;;;;3.38;2.50;;;;;;;;;;5065793;28;20222;-74
2022/03/12 05:23:29;;;;;;;3.10;1.77;;;;;;;;;;5075487;28;20702;-74
2022/03/12 05:25:55;;;;;;;4.30;1.55;;;;;;;;;;5066246;28;20506;-74
2022/03/12 05:28:32;;;;;;;1.90;1.20;;;;;;;;;;5071609;28;20045;-74
2022/03/12 05:31:00;;;;;;;5.45;1.70;;;;;;;;;;5061670;28;20044;-74
2022/03/12 05:33:30;;;;;;;7.25;2.50;;;;;;;;;;5068541;28;20045;-74
2022/03/12 05:35:56;;;;;;;2.70;1.65;;;;;;;;;;5070390;28;20033;-74
2022/03/12 05:38:23;;;;;;;3.13;1.50;;;;;;;;;;5074586;28;20045;-74
2022/03/12 05:40:52;;;;;;;2.50;1.88;;;;;;;;;;5071365;28;20041;-74
2022/03/12 05:43:19;;;;;;;4.68;1.67;;;;;;;;;;5060414;28;20053;-74
2022/03/12 05:45:47;;;;;;;3.28;1.65;;;;;;;;;;5069266;28;20052;-74
2022/03/12 05:48:14;;;;;;;5.25;2.63;;;;;;;;;;5071274;28;20585;-73
2022/03/12 05:50:40;;;;;;;4.68;1.90;;;;;;;;;;5068405;28;20091;-74
2022/03/12 05:53:09;;;;;;;5.10;1.98;;;;;;;;;;5069292;28;20056;-74
2022/03/12 05:55:42;;;;;;;3.25;1.80;;;;;;;;;;5070548;28;20044;-74
2022/03/12 05:58:12;;;;;;;3.80;2.00;;;;;;;;;;5065226;28;20106;-74
2022/03/12 06:00:45;;;;;;;4.20;2.17;;;;;;;;;;5069599;28;20045;-74
2022/03/12 06:03:19;;;;;;;6.13;3.42;;;;;;;;;;5068802;28;20048;-74
2022/03/12 06:05:54;;;;;;;5.30;1.92;;;;;;;;;;5070965;28;20352;-74
2022/03/12 06:08:22;;;;;;;4.32;2.10;;;;;;;;;;5071739;28;20052;-74
2022/03/12 06:10:51;;;;;;;6.18;2.67;;;;;;;;;;5071596;28;20560;-74
2022/03/12 06:13:17;;;;;;;3.58;1.80;;;;;;;;;;5069934;28;20036;-74
2022/03/12 06:15:52;;;;;;;5.35;2.00;;;;;;;;;;5071105;28;20044;-74
2022/03/12 06:18:23;;;;;;;4.32;2.42;;;;;;;;;;5071760;28;20060;-74
2022/03/12 06:20:53;;;;;;;2.00;1.23;;;;;;;;;;5069948;28;20581;-74
2022/03/12 06:23:24;;;;;;;6.32;3.25;;;;;;;;;;5072680;28;20047;-74
2022/03/12 06:25:53;;;;;;;5.93;1.75;;;;;;;;;;5071182;28;20036;-74
2022/03/12 06:28:19;;;;;;;3.83;2.42;;;;;;;;;;5073737;28;20053;-74
2022/03/12 06:30:47;;;;;;;2.15;1.65;;;;;;;;;;5065922;28;20060;-74
2022/03/12 06:33:19;;;;;;;6.70;2.88;;;;;;;;;;5071018;28;20036;-74
2022/03/12 06:35:46;;;;;;;4.65;2.30;;;;;;;;;;5072083;28;20739;-74
2022/03/12 06:38:15;;;;;;;9.82;3.13;;;;;;;;;;5071100;28;20045;-74
2022/03/12 06:40:44;;;;;;;6.85;2.78;;;;;;;;;;5073410;28;21061;-74
2022/03/12 06:43:18;;;;;;;2.53;1.67;;;;;;;;;;5062600;28;20106;-74
2022/03/12 06:45:44;;;;;;;8.13;2.55;;;;;;;;;;5066595;28;20048;-74
2022/03/12 06:48:11;;;;;;;5.65;3.03;;;;;;;;;;5068408;28;20472;-73
2022/03/12 06:50:41;;;;;;;6.50;2.13;;;;;;;;;;5067429;28;20120;-77
2022/03/12 06:53:07;;;;;;;4.55;2.13;;;;;;;;;;5063148;28;20040;-72
2022/03/12 06:55:42;;;;;;;5.50;2.08;;;;;;;;;;5067855;28;22425;-77
2022/03/12 06:58:08;;;;;;;11.13;2.65;;;;;;;;;;5072400;28;20956;-73
2022/03/12 07:00:34;;;;;;;4.75;2.05;;;;;;;;;;5070342;28;20053;-73
2022/03/12 07:03:01;;;;;;;4.57;2.42;;;;;;;;;;5066746;28;20037;-73
2022/03/12 07:05:27;;;;;;;3.53;1.90;;;;;;;;;;5070518;27;20052;-72
2022/03/12 07:07:54;;;;;;;7.22;2.58;;;;;;;;;;5069768;27;20048;-73
2022/03/12 07:10:21;;;;;;;14.40;2.70;;;;;;;;;;5075433;27;20083;-72
2022/03/12 07:12:48;;;;;;;3.88;2.05;;;;;;;;;;5072470;27;20037;-73
2022/03/12 07:15:15;;;;;;;9.68;2.25;;;;;;;;;;5073476;27;20486;-73
2022/03/12 07:17:42;;;;;;;5.45;2.05;;;;;;;;;;5074451;27;20031;-73
2022/03/12 07:20:09;;;;;;;7.10;2.17;;;;;;;;;;5090188;27;20047;-73
2022/03/12 07:22:35;;;;;;;6.07;1.60;;;;;;;;;;5094262;27;20088;-73
2022/03/12 07:25:01;;;;;;;3.40;1.70;;;;;;;;;;5072467;28;20032;-73
2022/03/12 07:27:27;;;;;;;7.85;2.30;;;;;;;;;;5071361;28;20051;-73
2022/03/12 07:29:53;;;;;;;4.28;2.33;;;;;;;;;;5094281;27;20083;-74
2022/03/12 07:32:20;;;;;;;4.28;1.75;;;;;;;;;;5074003;28;20048;-73
2022/03/12 07:34:47;;;;;;;3.70;1.98;;;;;;;;;;5074571;28;21204;-73
2022/03/12 07:37:13;;;;;;;5.05;2.30;;;;;;;;;;5091181;27;20068;-73
2022/03/12 07:39:39;;;;;;;6.53;2.22;;;;;;;;;;5073784;28;20044;-71
2022/03/12 07:42:06;;;;;;;5.20;1.70;;;;;;;;;;5070176;28;20498;-76
2022/03/12 07:44:32;;;;;;;6.47;2.25;;;;;;;;;;5092576;27;20099;-71
2022/03/12 07:46:59;;;;;;;3.15;1.60;;;;;;;;;;5073763;28;20089;-72
2022/03/12 07:49:26;;;;;;;2.33;1.80;;;;;;;;;;5081358;27;20067;-72
2022/03/12 07:51:53;;;;;;;4.25;1.30;;;;;;;;;;5075645;28;20548;-72
2022/03/12 07:54:19;;;;;;;3.00;1.75;;;;;;;;;;5092580;27;20052;-72
2022/03/12 07:56:45;;;;;;;4.85;1.50;;;;;;;;;;5078141;27;20036;-72
2022/03/12 07:59:12;;;;;;;4.65;1.55;;;;;;;;;;5095787;27;20040;-72
2022/03/12 08:01:38;;;;;;;3.45;1.17;;;;;;;;;;5076341;27;20048;-72
2022/03/12 08:04:06;;;;;;;1.88;1.08;;;;;;;;;;5075046;27;20043;-72
2022/03/12 08:06:33;;;;;;;4.28;1.77;;;;;;;;;;5074544;27;20048;-72
2022/03/12 08:08:59;;;;;;;2.63;1.25;;;;;;;;;;5071973;27;20048;-72
2022/03/12 08:11:25;;;;;;;3.15;1.20;;;;;;;;;;5091093;27;20055;-72
2022/03/12 08:13:55;;;;;;;3.08;1.33;;;;;;;;;;5073545;28;20044;-84
2022/03/12 08:16:21;;;;;;;2.40;1.58;;;;;;;;;;5059859;27;20061;-73
2022/03/12 08:18:47;;;;;;;2.38;1.48;;;;;;;;;;5072379;27;20048;-72
2022/03/12 08:21:15;;;;;;;1.77;1.38;;;;;;;;;;5088168;27;20047;-73
2022/03/12 08:23:41;;;;;;;3.28;1.45;;;;;;;;;;5074752;27;20241;-72
2022/03/12 08:26:08;;;;;;;2.15;1.35;;;;;;;;;;5098075;27;20040;-73
2022/03/12 08:28:34;;;;;;;8.23;1.70;;;;;;;;;;5076079;27;20680;-73
2022/03/12 08:31:02;;;;;;;4.82;1.48;;;;;;;;;;5076476;27;20036;-73
2022/03/12 08:33:28;;;;;;;4.57;1.48;;;;;;;;;;5096073;27;20547;-73
2022/03/12 08:35:56;;;;;;;4.45;1.38;;;;;;;;;;5071508;27;20033;-73
2022/03/12 08:38:22;;;;;;;4.97;1.38;;;;;;;;;;5094138;27;20561;-73
2022/03/12 08:40:48;;;;;;;2.35;1.33;;;;;;;;;;5093191;27;20051;-72
2022/03/12 08:43:15;;;;;;;2.85;1.70;;;;;;;;;;5065222;27;20036;-72
2022/03/12 08:45:41;;;;;;;1.77;1.08;;;;;;;;;;5093180;27;20048;-72
2022/03/12 08:48:07;;;;;;;2.28;1.30;;;;;;;;;;5088626;27;20049;-72
2022/03/12 08:50:33;;;;;;;5.28;1.50;;;;;;;;;;5075669;28;20109;-73
2022/03/12 08:52:59;;;;;;;4.43;1.33;;;;;;;;;;5074220;28;20120;-72
2022/03/12 08:55:25;;;;;;;2.75;1.23;;;;;;;;;;5076990;28;20048;-72
2022/03/12 08:57:52;;;;;;;3.35;1.52;;;;;;;;;;5074199;28;20147;-72
2022/03/12 09:00:19;;;;;;;1.95;1.20;;;;;;;;;;5072320;28;20075;-72
2022/03/12 09:02:46;;;;;;;2.05;1.13;;;;;;;;;;5074816;28;20786;-72
2022/03/12 09:05:13;;;;;;;3.65;1.08;;;;;;;;;;5073157;28;20099;-72
2022/03/12 09:07:40;;;;;;;4.15;2.40;;;;;;;;;;5072055;27;20052;-72
2022/03/12 09:10:06;;;;;;;7.95;2.53;;;;;;;;;;5073954;28;20596;-72
2022/03/12 09:12:33;;;;;;;4.20;1.40;;;;;;;;;;5089185;27;20040;-73
2022/03/12 09:14:59;;;;;;;5.20;1.63;;;;;;;;;;5072620;28;20050;-73
2022/03/12 09:17:25;;;;;;;5.65;1.88;;;;;;;;;;5072071;28;20048;-72
2022/03/12 09:19:51;;;;;;;3.25;1.80;;;;;;;;;;5092923;27;20843;-72
2022/03/12 09:22:17;;;;;;;5.35;1.50;;;;;;;;;;5096174;27;20043;-73
2022/03/12 09:24:43;;;;;;;3.65;1.80;;;;;;;;;;5071655;27;20047;-73
2022/03/12 09:27:09;;;;;;;2.72;1.67;;;;;;;;;;5077123;27;20513;-73
2022/03/12 09:29:36;;;;;;;3.42;1.42;;;;;;;;;;5094604;27;20128;-72
2022/03/12 09:32:04;;;;;;;2.72;1.30;;;;;;;;;;5093096;27;20035;-73
2022/03/12 09:34:30;;;;;;;3.35;1.45;;;;;;;;;;5092777;27;20972;-73
2022/03/12 09:36:56;;;;;;;1.95;1.58;;;;;;;;;;5094290;27;20051;-75
2022/03/12 09:39:23;;;;;;;1.35;1.05;;;;;;;;;;5088373;27;20032;-73
2022/03/12 09:41:50;;;;;;;3.20;1.55;;;;;;;;;;5071712;27;20032;-72
2022/03/12 09:44:16;;;;;;;2.55;1.25;;;;;;;;;;5076084;27;20037;-73
2022/03/12 09:46:42;;;;;;;3.50;1.83;;;;;;;;;;5089606;27;20054;-75
2022/03/12 09:49:11;;;;;;;7.10;1.67;;;;;;;;;;5085303;27;20051;-73
2022/03/12 09:51:37;;;;;;;1.95;1.48;;;;;;;;;;5088364;27;20033;-72
2022/03/12 09:54:03;;;;;;;1.25;1.08;;;;;;;;;;5067391;28;20066;-72
2022/03/12 09:56:30;;;;;;;3.05;1.65;;;;;;;;;;5074247;27;20094;-72
2022/03/12 09:58:57;;;;;;;2.10;1.38;;;;;;;;;;5068441;27;20082;-72
2022/03/12 10:01:23;;;;;;;5.30;1.60;;;;;;;;;;5095329;27;20036;-72
2022/03/12 10:03:49;;;;;;;6.10;2.13;;;;;;;;;;5071538;27;20125;-72
2022/03/12 10:06:16;;;;;;;4.53;1.80;;;;;;;;;;5072555;28;20187;-72
2022/03/12 10:08:42;;;;;;;2.65;1.50;;;;;;;;;;5072718;28;20043;-73
2022/03/12 10:11:08;;;;;;;4.38;1.52;;;;;;;;;;5068653;28;20037;-72
2022/03/12 10:13:35;;;;;;;4.35;1.60;;;;;;;;;;5067628;28;20044;-72
2022/03/12 10:16:01;;;;;;;5.75;2.20;;;;;;;;;;5062190;28;20091;-72
2022/03/12 10:18:27;;;;;;;5.82;1.40;;;;;;;;;;5067300;28;20082;-72
2022/03/12 10:20:54;;;;;;;2.47;1.48;;;;;;;;;;5064712;27;20037;-72
2022/03/12 10:23:21;;;;;;;2.67;1.30;;;;;;;;;;5065840;28;20055;-72
2022/03/12 10:25:47;;;;;;;3.10;2.30;;;;;;;;;;5066332;28;20053;-72
2022/03/12 10:28:13;;;;;;;3.53;1.63;;;;;;;;;;5063066;28;20047;-72
2022/03/12 10:30:40;;;;;;;2.92;1.83;;;;;;;;;;5064508;28;20078;-73
2022/03/12 10:33:06;;;;;;;2.28;1.50;;;;;;;;;;5067561;28;20090;-72
2022/03/12 10:35:37;;;;;;;4.43;1.55;;;;;;;;;;5068473;28;20052;-72
2022/03/12 10:38:09;;;;;;;4.45;1.90;;;;;;;;;;5065988;28;20093;-73
2022/03/12 10:40:35;;;;;;;6.53;1.92;;;;;;;;;;5064355;28;20131;-73
2022/03/12 10:43:05;;;;;;;1.92;1.05;;;;;;;;;;5068153;28;20160;-73
2022/03/12 10:45:32;;;;;;;4.00;1.30;;;;;;;;;;5068065;28;20037;-72
2022/03/12 10:47:59;;;;;;;6.13;1.95;;;;;;;;;;5063561;28;20045;-72
2022/03/12 10:50:27;;;;;;;8.40;2.08;;;;;;;;;;5067120;28;20759;-73
2022/03/12 10:52:58;;;;;;;4.97;1.92;;;;;;;;;;5067411;28;20037;-72
2022/03/12 10:55:33;;;;;;;4.13;1.17;;;;;;;;;;5065651;28;20059;-72
2022/03/12 10:58:01;;;;;;;4.05;1.10;;;;;;;;;;5069057;28;20119;-72
2022/03/12 11:00:28;;;;;;;3.88;1.10;;;;;;;;;;5070235;28;20044;-72
2022/03/12 11:02:55;;;;;;;4.80;1.30;;;;;;;;;;5066944;28;20032;-72
2022/03/12 11:05:25;;;;;;;3.67;1.42;;;;;;;;;;5064356;27;20086;-72
2022/03/12 11:07:51;;;;;;;1.73;1.10;;;;;;;;;;5064648;27;20079;-72
2022/03/12 11:10:37;;;;;;;3.50;1.30;;;;;;;;;;5075197;28;20220;-72
2022/03/12 11:13:04;;;;;;;8.32;1.48;;;;;;;;;;5086541;27;20462;-72
2022/03/12 11:15:32;;;;;;;3.67;1.10;;;;;;;;;;5070726;27;20090;-72
2022/03/12 11:17:58;;;;;;;4.30;1.60;;;;;;;;;;5079485;27;20924;-77
2022/03/12 11:20:25;;;;;;;1.50;0.95;;;;;;;;;;5095714;27;20048;-76
2022/03/12 11:23:11;;;;;;;2.40;1.20;;;;;;;;;;5073723;27;20046;-77
2022/03/12 11:25:53;;;;;;;3.85;1.20;;;;;;;;;;5087237;27;20216;-77
2022/03/12 11:28:20;;;;;;;4.75;1.10;;;;;;;;;;5090855;27;20048;-76
2022/03/12 11:30:47;;;;;;;1.50;1.02;;;;;;;;;;5077028;28;20043;-78
2022/03/12 11:33:13;;;;;;;1.90;1.45;;;;;;;;;;5086409;27;20127;-76
2022/03/12 11:35:45;;;;;;;2.75;0.70;;;;;;;;;;5076778;28;20782;-77
2022/03/12 11:38:15;;;;;;;1.17;0.70;;;;;;;;;;5088998;27;20041;-77
2022/03/12 11:40:46;;;;;;;2.05;1.15;;;;;;;;;;5086197;27;20044;-77
2022/03/12 11:43:24;;;;;;;1.70;0.90;;;;;;;;;;5078434;27;20036;-77
2022/03/12 11:45:53;;;;;;;1.77;0.90;;;;;;;;;;5091992;27;20530;-77
2022/03/12 11:48:20;;;;;;;0.93;0.73;;;;;;;;;;5073843;27;20213;-77
2022/03/12 11:50:46;;;;;;;1.15;0.77;;;;;;;;;;5074611;27;20048;-77
2022/03/12 11:53:16;;;;;;;2.65;1.30;;;;;;;;;;5071006;27;20040;-78
2022/03/12 11:55:43;;;;;;;4.45;1.20;;;;;;;;;;5088796;27;20052;-78
2022/03/12 11:58:09;;;;;;;4.15;1.45;;;;;;;;;;5088611;27;20040;-77
2022/03/12 12:00:35;;;;;;;4.15;0.85;;;;;;;;;;5072853;28;20550;-77
2022/03/12 12:03:01;;;;;;;1.95;1.42;;;;;;;;;;5073521;27;20135;-78
2022/03/12 12:05:30;;;;;;;1.27;1.17;;;;;;;;;;5071794;27;20136;-77
2022/03/12 12:07:56;;;;;;;2.38;1.33;;;;;;;;;;5068852;27;20964;-77
2022/03/12 12:10:27;;;;;;;2.63;1.00;;;;;;;;;;5090266;27;20040;-77
2022/03/12 12:12:53;;;;;;;1.33;0.73;;;;;;;;;;5073952;27;20036;-77
2022/03/12 12:15:22;;;;;;;1.42;0.73;;;;;;;;;;5090930;27;20045;-77
2022/03/12 12:17:48;;;;;;;1.90;0.85;;;;;;;;;;5074450;27;20494;-78
2022/03/12 12:20:15;;;;;;;3.17;1.02;;;;;;;;;;5079762;28;20127;-77
2022/03/12 12:22:42;;;;;;;1.05;0.73;;;;;;;;;;5075438;27;20043;-77
2022/03/12 12:25:10;;;;;;;2.08;0.77;;;;;;;;;;5096584;27;20050;-84
2022/03/12 12:27:43;;;;;;;2.90;0.82;;;;;;;;;;5076253;27;20040;-82
2022/03/12 12:30:39;;;;;;;2.75;0.80;;;;;;;;;;5080805;27;20037;-83
2022/03/12 12:33:29;;;;;;;3.10;1.00;;;;;;;;;;5077058;28;20146;-75
2022/03/12 12:36:12;;;;;;;2.85;0.95;;;;;;;;;;5065744;27;20143;-77
2022/03/12 12:38:40;;;;;;;2.97;0.80;;;;;;;;;;5079795;27;20078;-75
2022/03/12 12:41:12;;;;;;;2.55;1.20;;;;;;;;;;5079205;28;20950;-79
2022/03/12 12:43:42;;;;;;;2.65;0.80;;;;;;;;;;5092179;27;20521;-77
2022/03/12 12:46:12;;;;;;;3.85;1.20;;;;;;;;;;5093003;27;20521;-77
2022/03/12 12:48:48;;;;;;;3.30;1.20;;;;;;;;;;5094039;27;20123;-83
2022/03/12 12:51:18;;;;;;;2.50;0.80;;;;;;;;;;5077287;28;20044;-76
2022/03/12 12:53:45;;;;;;;2.22;0.40;;;;;;;;;;5074307;28;21272;-75
2022/03/12 12:56:34;;;;;;;2.80;1.30;;;;;;;;;;5095827;27;20060;-87
2022/03/12 12:59:01;;;;;;;2.80;0.75;;;;;;;;;;5080215;27;20091;-80
2022/03/12 13:01:34;;;;;;;3.05;1.00;;;;;;;;;;5099089;28;20040;-80
2022/03/12 13:04:03;;;;;;;2.05;0.95;;;;;;;;;;5079462;28;20074;-80
2022/03/12 13:06:40;;;;;;;1.23;0.70;;;;;;;;;;5093789;27;20052;-81
2022/03/12 13:09:17;;;;;;;8.35;1.98;;;;;;;;;;5069704;28;20043;-80
2022/03/12 13:11:49;;;;;;;1.55;1.20;;;;;;;;;;5082527;28;20068;-81
2022/03/12 13:14:24;;;;;;;2.40;1.27;;;;;;;;;;5095071;27;20036;-81
2022/03/12 13:17:04;;;;;;;1.92;1.48;;;;;;;;;;5077985;28;20074;-80
2022/03/12 13:19:32;;;;;;;2.17;1.60;;;;;;;;;;5091046;28;20052;-80
2022/03/12 13:21:59;;;;;;;3.40;1.20;;;;;;;;;;5093858;27;20040;-80
2022/03/12 13:24:28;;;;;;;2.92;1.02;;;;;;;;;;5076491;27;20127;-80
2022/03/12 13:26:54;;;;;;;2.53;0.90;;;;;;;;;;5074676;28;20094;-79
2022/03/12 13:29:24;;;;;;;3.10;1.35;;;;;;;;;;5076565;27;21533;-79
2022/03/12 13:31:53;;;;;;;2.85;0.98;;;;;;;;;;5068330;28;20686;-81
2022/03/12 13:34:20;;;;;;;2.45;0.77;;;;;;;;;;5077860;27;20044;-79
2022/03/12 13:36:47;;;;;;;1.00;0.75;;;;;;;;;;5074887;27;20040;-80
2022/03/12 13:39:15;;;;;;;2.42;1.00;;;;;;;;;;5078037;27;20106;-80
2022/03/12 13:41:42;;;;;;;3.80;1.08;;;;;;;;;;5074545;27;20461;-78
2022/03/12 13:44:13;;;;;;;3.35;1.42;;;;;;;;;;5073869;27;20994;-83
2022/03/12 13:46:39;;;;;;;1.88;0.93;;;;;;;;;;5073806;27;20144;-81
2022/03/12 13:49:10;;;;;;;3.85;1.17;;;;;;;;;;5092122;27;20039;-81
2022/03/12 13:51:45;;;;;;;2.00;0.90;;;;;;;;;;5075401;27;20036;-81
2022/03/12 13:54:12;;;;;;;1.48;1.00;;;;;;;;;;5072206;28;20040;-81
2022/03/12 13:56:40;;;;;;;1.23;0.82;;;;;;;;;;5078420;27;20039;-81
2022/03/12 13:59:12;;;;;;;1.35;0.70;;;;;;;;;;5089238;27;20040;-81
2022/03/12 14:01:39;;;;;;;3.03;0.82;;;;;;;;;;5071710;27;20044;-81
2022/03/12 14:04:07;;;;;;;0.70;0.68;;;;;;;;;;5070466;28;20565;-82
2022/03/12 14:06:34;;;;;;;0.57;0.55;;;;;;;;;;5091807;27;20609;-80
2022/03/12 14:09:01;;;;;;;0.40;0.40;;;;;;;;;;5075508;27;20486;-78
2022/03/12 14:11:34;;;;;;;0.63;0.55;;;;;;;;;;5073089;27;20051;-77
2022/03/12 14:14:06;;;;;;;0.95;0.60;;;;;;;;;;5074358;28;20036;-81
2022/03/12 14:16:36;;;;;;;0.65;0.52;;;;;;;;;;5069354;28;20040;-80
2022/03/12 14:19:05;;;;;;;0.52;0.52;;;;;;;;;;5070861;28;20110;-80
2022/03/12 14:21:36;;;;;;;0.57;0.47;;;;;;;;;;5080794;27;20048;-79
2022/03/12 14:24:17;;;;;;;0.57;0.50;;;;;;;;;;5074752;28;20044;-78
2022/03/12 14:26:44;;;;;;;0.80;0.50;;;;;;;;;;5085231;27;20552;-79
2022/03/12 14:29:11;;;;;;;1.17;0.85;;;;;;;;;;5070315;28;20285;-79
2022/03/12 14:31:37;;;;;;;1.20;0.70;;;;;;;;;;5069631;28;20036;-78
2022/03/12 14:34:05;;;;;;;1.60;0.85;;;;;;;;;;5073256;28;20036;-79
2022/03/12 14:36:34;;;;;;;0.45;0.45;;;;;;;;;;5074794;28;20090;-78
2022/03/12 14:39:01;;;;;;;0.50;0.50;;;;;;;;;;5072214;28;20036;-79
2022/03/12 14:41:28;;;;;;;1.60;0.77;;;;;;;;;;5095087;27;20049;-78
2022/03/12 14:43:54;;;;;;;0.85;0.70;;;;;;;;;;5074666;28;20094;-79
2022/03/12 14:46:23;;;;;;;2.60;1.05;;;;;;;;;;5074304;28;20051;-81
2022/03/12 14:48:50;;;;;;;1.02;0.63;;;;;;;;;;5072843;28;20113;-79
2022/03/12 14:51:25;;;;;;;1.90;0.57;;;;;;;;;;5076038;28;20036;-82